createdAt,value
2022-08-25T00:00:45.156Z,55.80
2022-08-25T00:03:44.105Z,56.23
2022-08-25T00:06:40.709Z,57.16
2022-08-25T00:09:35.704Z,57.85
2022-08-25T00:12:33.383Z,58.47
2022-08-25T00:15:33.845Z,59.08
2022-08-25T00:18:28.401Z,59.74
2022-08-25T00:21:22.477Z,60.25
2022-08-25T00:24:19.788Z,60.62
2022-08-25T00:27:16.902Z,61.08
2022-08-25T00:30:15.855Z,66.36
2022-08-25T00:33:12.089Z,65.34
2022-08-25T00:36:07.887Z,58.17
2022-08-25T00:39:01.530Z,55.39
2022-08-25T00:41:56.559Z,55.89
2022-08-25T00:44:53.163Z,56.68
2022-08-25T00:47:53.592Z,57.39
2022-08-25T00:50:50.207Z,58.25
2022-08-25T00:53:45.038Z,58.89
2022-08-25T00:56:42.601Z,59.43
2022-08-25T00:59:36.718Z,59.82
2022-08-25T01:02:30.463Z,60.30
2022-08-25T01:05:42.151Z,60.74
2022-08-25T01:08:54.282Z,67.14
2022-08-25T01:11:55.074Z,63.84
2022-08-25T01:15:02.792Z,57.88
2022-08-25T01:18:02.290Z,55.44
2022-08-25T01:20:55.484Z,56.01
2022-08-25T01:23:52.802Z,56.94
2022-08-25T01:26:47.922Z,57.72
2022-08-25T01:29:42.937Z,58.30
2022-08-25T01:32:37.225Z,59.00
2022-08-25T01:35:31.250Z,59.47
2022-08-25T01:38:26.114Z,59.99
2022-08-25T01:41:23.829Z,60.42
2022-08-25T01:44:19.889Z,60.80
2022-08-25T01:47:17.147Z,61.18
2022-08-25T01:50:13.993Z,66.59
2022-08-25T01:53:16.005Z,65.35
2022-08-25T01:56:15.868Z,58.42
2022-08-25T01:59:10.610Z,55.60
2022-08-25T02:02:04.745Z,56.13
2022-08-25T02:05:02.604Z,56.84
2022-08-25T02:07:59.742Z,57.63
2022-08-25T02:10:56.790Z,58.36
2022-08-25T02:13:50.613Z,58.91
2022-08-25T02:16:47.302Z,59.49
2022-08-25T02:19:43.585Z,59.96
2022-08-25T02:22:35.498Z,60.46
2022-08-25T02:25:29.990Z,60.84
2022-08-25T02:28:24.976Z,61.25
2022-08-25T02:31:20.190Z,66.68
2022-08-25T02:34:16.082Z,65.45
2022-08-25T02:37:10.428Z,58.29
2022-08-25T02:40:05.931Z,55.57
2022-08-25T02:43:00.331Z,56.03
2022-08-25T02:45:55.154Z,56.82
2022-08-25T02:48:52.049Z,57.58
2022-08-25T02:51:49.321Z,58.27
2022-08-25T02:54:44.240Z,58.88
2022-08-25T02:57:39.637Z,59.39
2022-08-25T03:00:34.090Z,59.86
2022-08-25T03:03:29.846Z,60.35
2022-08-25T03:06:27.423Z,60.56
2022-08-25T03:09:24.269Z,59.88
2022-08-25T03:12:18.753Z,65.36
2022-08-25T03:15:21.136Z,64.64
2022-08-25T03:18:16.635Z,58.69
2022-08-25T03:21:13.790Z,56.09
2022-08-25T03:24:11.636Z,56.50
2022-08-25T03:27:07.897Z,57.39
2022-08-25T03:30:04.638Z,58.11
2022-08-25T03:32:57.803Z,58.72
2022-08-25T03:35:54.045Z,59.28
2022-08-25T03:38:48.844Z,59.76
2022-08-25T03:41:42.602Z,60.23
2022-08-25T03:44:44.068Z,60.75
2022-08-25T03:47:37.182Z,61.04
2022-08-25T03:50:32.325Z,66.01
2022-08-25T03:53:27.093Z,65.42
2022-08-25T03:56:23.765Z,58.55
2022-08-25T03:59:18.283Z,55.80
2022-08-25T04:02:13.854Z,56.20
2022-08-25T04:05:12.952Z,56.99
2022-08-25T04:08:12.582Z,57.66
2022-08-25T04:11:13.209Z,58.37
2022-08-25T04:14:16.548Z,58.85
2022-08-25T04:17:16.839Z,59.35
2022-08-25T04:20:20.585Z,59.85
2022-08-25T04:23:15.100Z,60.17
2022-08-25T04:26:14.698Z,60.60
2022-08-25T04:29:10.957Z,60.86
2022-08-25T04:32:06.480Z,61.31
2022-08-25T04:34:59.544Z,66.21
2022-08-25T04:37:52.635Z,65.31
2022-08-25T04:40:46.723Z,58.19
2022-08-25T04:43:41.399Z,55.26
2022-08-25T04:46:39.626Z,55.55
2022-08-25T04:49:35.597Z,56.24
2022-08-25T04:52:33.795Z,57.01
2022-08-25T04:55:33.713Z,57.61
2022-08-25T04:58:28.395Z,58.18
2022-08-25T05:01:31.395Z,58.78
2022-08-25T05:04:29.082Z,59.19
2022-08-25T05:07:38.160Z,59.70
2022-08-25T05:10:55.638Z,60.00
2022-08-25T05:13:57.102Z,60.49
2022-08-25T05:17:01.415Z,60.86
2022-08-25T05:19:59.676Z,61.24
2022-08-25T05:22:55.767Z,66.11
2022-08-25T05:25:49.576Z,65.75
2022-08-25T05:28:51.348Z,58.61
2022-08-25T05:31:50.794Z,55.77
2022-08-25T05:34:53.170Z,56.15
2022-08-25T05:37:57.627Z,56.87
2022-08-25T05:40:58.792Z,57.26
2022-08-25T05:43:52.872Z,56.85
2022-08-25T05:46:47.791Z,58.41
2022-08-25T05:49:44.830Z,58.94
2022-08-25T05:52:57.200Z,59.36
2022-08-25T05:55:58.576Z,59.75
2022-08-25T05:58:59.184Z,60.40
2022-08-25T06:02:16.542Z,60.74
2022-08-25T06:05:16.885Z,61.05
2022-08-25T06:08:16.215Z,65.80
2022-08-25T06:11:15.130Z,66.18
2022-08-25T06:14:15.164Z,58.72
2022-08-25T06:17:15.823Z,55.58
2022-08-25T06:20:25.454Z,55.38
2022-08-25T06:23:39.196Z,56.53
2022-08-25T06:26:46.101Z,57.35
2022-08-25T06:29:46.007Z,58.14
2022-08-25T06:32:51.196Z,58.77
2022-08-25T06:35:50.154Z,59.40
2022-08-25T06:38:51.169Z,59.90
2022-08-25T06:41:47.263Z,60.38
2022-08-25T06:44:45.616Z,60.73
2022-08-25T06:47:49.112Z,61.07
2022-08-25T06:50:52.895Z,66.82
2022-08-25T06:53:54.503Z,65.28
2022-08-25T06:56:49.676Z,58.24
2022-08-25T06:59:59.611Z,55.39
2022-08-25T07:03:02.095Z,55.80
2022-08-25T07:06:04.087Z,56.58
2022-08-25T07:09:10.237Z,57.37
2022-08-25T07:12:11.253Z,57.86
2022-08-25T07:15:20.398Z,58.40
2022-08-25T07:18:24.913Z,59.01
2022-08-25T07:21:32.649Z,59.50
2022-08-25T07:24:36.977Z,59.94
2022-08-25T07:27:37.092Z,60.38
2022-08-25T07:30:41.241Z,60.76
2022-08-25T07:34:05.508Z,61.04
2022-08-25T07:37:23.795Z,68.61
2022-08-25T07:40:32.692Z,70.75
2022-08-25T07:43:38.193Z,58.80
2022-08-25T07:46:40.743Z,55.42
2022-08-25T07:49:45.549Z,55.65
2022-08-25T07:52:52.277Z,56.34
2022-08-25T07:56:00.117Z,57.00
2022-08-25T07:59:08.375Z,57.56
2022-08-25T08:02:19.477Z,58.18
2022-08-25T08:05:24.984Z,58.77
2022-08-25T08:08:20.585Z,59.31
2022-08-25T08:11:20.229Z,59.83
2022-08-25T08:14:24.231Z,60.15
2022-08-25T08:17:38.271Z,60.56
2022-08-25T08:20:43.384Z,60.76
2022-08-25T08:23:38.924Z,61.13
2022-08-25T08:26:58.333Z,66.06
2022-08-25T08:30:04.241Z,66.21
2022-08-25T08:33:16.504Z,58.50
2022-08-25T08:36:18.844Z,55.49
2022-08-25T08:39:22.352Z,55.88
2022-08-25T08:42:49.591Z,56.55
2022-08-25T08:45:58.794Z,57.02
2022-08-25T08:49:06.030Z,57.87
2022-08-25T08:52:12.361Z,58.47
2022-08-25T08:55:17.039Z,59.01
2022-08-25T08:58:39.273Z,59.42
2022-08-25T09:01:53.231Z,59.73
2022-08-25T09:05:05.322Z,60.20
2022-08-25T09:08:06.466Z,60.55
2022-08-25T09:11:18.842Z,60.95
2022-08-25T09:14:30.417Z,61.24
2022-08-25T09:17:54.816Z,67.67
2022-08-25T09:21:05.052Z,66.59
2022-08-25T09:24:28.964Z,58.13
2022-08-25T09:27:35.062Z,55.67
2022-08-25T09:30:45.085Z,56.13
2022-08-25T09:33:47.470Z,56.98
2022-08-25T09:36:48.843Z,57.60
2022-08-25T09:39:57.489Z,58.27
2022-08-25T09:43:00.797Z,58.66
2022-08-25T09:46:03.987Z,59.24
2022-08-25T09:49:18.987Z,59.56
2022-08-25T09:52:36.486Z,60.03
2022-08-25T09:55:40.360Z,60.36
2022-08-25T09:58:49.235Z,60.72
2022-08-25T10:01:56.117Z,61.07
2022-08-25T10:04:55.079Z,66.74
2022-08-25T10:08:02.345Z,64.22
2022-08-25T10:11:12.165Z,58.28
2022-08-25T10:14:28.367Z,55.62
2022-08-25T10:17:34.186Z,55.82
2022-08-25T10:20:44.721Z,56.66
2022-08-25T10:23:57.099Z,57.16
2022-08-25T10:27:05.538Z,57.72
2022-08-25T10:30:21.316Z,58.20
2022-08-25T10:33:37.369Z,58.53
2022-08-25T10:36:57.336Z,59.11
2022-08-25T10:40:17.399Z,59.50
2022-08-25T10:43:33.606Z,59.85
2022-08-25T10:46:43.743Z,60.26
2022-08-25T10:49:49.952Z,60.68
2022-08-25T10:53:00.508Z,61.04
2022-08-25T10:56:07.585Z,61.22
2022-08-25T10:59:29.994Z,61.39
2022-08-25T11:03:16.397Z,68.10
2022-08-25T11:06:30.743Z,67.21
2022-08-25T11:09:44.579Z,66.94
2022-08-25T11:12:54.388Z,56.27
2022-08-25T11:16:19.273Z,53.67
2022-08-25T11:19:24.387Z,54.01
2022-08-25T11:22:33.428Z,54.93
2022-08-25T11:25:46.411Z,55.53
2022-08-25T11:28:56.096Z,56.43
2022-08-25T11:32:05.127Z,56.97
2022-08-25T11:35:19.999Z,57.65
2022-08-25T11:38:36.405Z,58.32
2022-08-25T11:41:59.370Z,58.80
2022-08-25T11:45:16.403Z,59.32
2022-08-25T11:48:31.392Z,59.81
2022-08-25T11:51:36.325Z,60.05
2022-08-25T11:54:39.180Z,60.57
2022-08-25T11:57:43.573Z,60.89
2022-08-25T12:00:47.392Z,61.15
2022-08-25T12:04:20.501Z,66.44
2022-08-25T12:07:30.484Z,66.74
2022-08-25T12:11:11.852Z,58.05
2022-08-25T12:14:57.396Z,55.21
2022-08-25T12:18:28.410Z,55.57
2022-08-25T12:21:47.435Z,56.53
2022-08-25T12:25:01.913Z,57.38
2022-08-25T12:28:16.268Z,58.15
2022-08-25T12:32:09.519Z,58.54
2022-08-25T12:35:36.192Z,58.79
2022-08-25T12:38:34.997Z,59.46
2022-08-25T12:41:38.799Z,60.16
2022-08-25T12:44:46.250Z,60.67
2022-08-25T12:47:50.302Z,60.82
2022-08-25T12:50:52.160Z,66.10
2022-08-25T12:54:30.475Z,65.87
2022-08-25T12:57:51.691Z,58.17
2022-08-25T13:01:35.249Z,55.64
2022-08-25T13:05:05.468Z,55.99
2022-08-25T13:08:53.574Z,57.02
2022-08-25T13:12:25.446Z,57.59
2022-08-25T13:15:44.746Z,58.62
2022-08-25T13:19:04.484Z,59.45
2022-08-25T13:22:21.488Z,60.16
2022-08-25T13:25:35.292Z,66.41
2022-08-25T13:28:50.271Z,63.33
2022-08-25T13:32:04.312Z,57.90
2022-08-25T13:35:17.778Z,55.52
2022-08-25T13:38:33.232Z,56.08
2022-08-25T13:41:43.961Z,57.04
2022-08-25T13:44:56.220Z,58.02
2022-08-25T13:47:59.605Z,58.80
2022-08-25T13:51:00.365Z,59.55
2022-08-25T13:54:04.127Z,59.85
2022-08-25T13:57:19.500Z,60.39
2022-08-25T14:00:47.270Z,60.75
2022-08-25T14:03:55.687Z,66.66
2022-08-25T14:07:38.475Z,65.29
2022-08-25T14:10:46.534Z,57.67
2022-08-25T14:13:56.729Z,55.40
2022-08-25T14:17:28.792Z,56.03
2022-08-25T14:20:41.744Z,56.60
2022-08-25T14:23:55.539Z,57.62
2022-08-25T14:27:00.311Z,58.38
2022-08-25T14:30:04.359Z,59.07
2022-08-25T14:33:17.509Z,59.58
2022-08-25T14:36:27.200Z,60.02
2022-08-25T14:39:45.048Z,60.51
2022-08-25T14:42:48.355Z,60.96
2022-08-25T14:45:46.564Z,66.46
2022-08-25T14:48:57.898Z,65.20
2022-08-25T14:52:01.556Z,58.16
2022-08-25T14:55:12.517Z,55.59
2022-08-25T14:58:51.123Z,55.99
2022-08-25T15:02:15.569Z,56.68
2022-08-25T15:05:39.801Z,57.38
2022-08-25T15:09:12.069Z,58.20
2022-08-25T15:12:44.116Z,58.64
2022-08-25T15:15:52.646Z,59.28
2022-08-25T15:19:06.981Z,59.91
2022-08-25T15:22:10.748Z,60.56
2022-08-25T15:25:28.601Z,60.97
2022-08-25T15:28:35.856Z,66.98
2022-08-25T15:31:39.506Z,64.93
2022-08-25T15:34:40.502Z,57.93
2022-08-25T15:37:49.607Z,55.58
2022-08-25T15:40:49.603Z,55.83
2022-08-25T15:44:05.512Z,56.54
2022-08-25T15:47:12.504Z,57.05
2022-08-25T15:50:12.435Z,57.89
2022-08-25T15:53:10.732Z,58.36
2022-08-25T15:56:26.755Z,58.66
2022-08-25T15:59:29.588Z,58.89
2022-08-25T16:02:33.117Z,59.35
2022-08-25T16:05:33.586Z,59.60
2022-08-25T16:08:37.887Z,60.01
2022-08-25T16:11:45.589Z,60.30
2022-08-25T16:15:00.578Z,60.61
2022-08-25T16:18:05.674Z,61.22
2022-08-25T16:21:15.742Z,66.73
2022-08-25T16:24:12.425Z,65.66
2022-08-25T16:27:15.657Z,58.50
2022-08-25T16:30:26.632Z,55.85
2022-08-25T16:33:32.601Z,56.27
2022-08-25T16:36:39.938Z,56.78
2022-08-25T16:39:40.033Z,57.46
2022-08-25T16:42:51.728Z,57.95
2022-08-25T16:46:03.328Z,58.55
2022-08-25T16:49:06.431Z,59.15
2022-08-25T16:52:30.430Z,59.65
2022-08-25T16:55:42.522Z,59.84
2022-08-25T16:58:44.632Z,60.40
2022-08-25T17:01:49.662Z,60.83
2022-08-25T17:04:56.614Z,61.04
2022-08-25T17:08:23.888Z,61.28
2022-08-25T17:11:42.628Z,61.36
2022-08-25T17:14:41.829Z,67.27
2022-08-25T17:17:51.079Z,65.57
2022-08-25T17:20:52.629Z,58.37
2022-08-25T17:23:51.516Z,55.65
2022-08-25T17:26:51.558Z,55.93
2022-08-25T17:29:59.849Z,56.60
2022-08-25T17:33:02.019Z,57.09
2022-08-25T17:36:06.646Z,57.80
2022-08-25T17:39:22.129Z,58.29
2022-08-25T17:42:26.785Z,58.66
2022-08-25T17:45:39.500Z,59.15
2022-08-25T17:48:43.808Z,59.57
2022-08-25T17:51:53.798Z,59.90
2022-08-25T17:54:58.867Z,60.30
2022-08-25T17:58:07.682Z,60.78
2022-08-25T18:01:05.396Z,61.07
2022-08-25T18:04:07.647Z,66.07
2022-08-25T18:07:36.692Z,65.72
2022-08-25T18:10:49.094Z,58.20
2022-08-25T18:13:58.701Z,55.64
2022-08-25T18:17:09.659Z,56.06
2022-08-25T18:20:10.800Z,56.80
2022-08-25T18:23:15.615Z,57.47
2022-08-25T18:26:15.151Z,57.98
2022-08-25T18:29:19.667Z,58.25
2022-08-25T18:32:19.589Z,58.95
2022-08-25T18:35:35.731Z,59.39
2022-08-25T18:39:06.406Z,59.65
2022-08-25T18:42:17.720Z,59.97
2022-08-25T18:45:26.859Z,60.76
2022-08-25T18:48:33.091Z,60.79
2022-08-25T18:51:48.054Z,61.20
2022-08-25T18:55:01.574Z,67.83
2022-08-25T18:57:56.840Z,64.25
2022-08-25T19:01:10.724Z,58.61
2022-08-25T19:04:31.652Z,56.11
2022-08-25T19:07:37.494Z,56.66
2022-08-25T19:10:37.285Z,57.83
2022-08-25T19:13:45.990Z,58.28
2022-08-25T19:16:59.496Z,58.83
2022-08-25T19:20:10.958Z,59.45
2022-08-25T19:23:17.803Z,60.28
2022-08-25T19:26:31.244Z,60.86
2022-08-25T19:29:40.125Z,66.20
2022-08-25T19:32:53.251Z,65.29
2022-08-25T19:35:56.698Z,58.33
2022-08-25T19:39:12.562Z,55.85
2022-08-25T19:42:32.728Z,56.46
2022-08-25T19:45:43.705Z,57.36
2022-08-25T19:48:52.754Z,58.16
2022-08-25T19:51:55.446Z,58.82
2022-08-25T19:55:05.501Z,59.54
2022-08-25T19:58:10.558Z,60.26
2022-08-25T20:01:08.526Z,60.87
2022-08-25T20:04:16.748Z,65.88
2022-08-25T20:07:28.712Z,65.22
2022-08-25T20:10:41.894Z,58.42
2022-08-25T20:13:45.555Z,56.22
2022-08-25T20:16:45.372Z,56.94
2022-08-25T20:19:47.763Z,57.66
2022-08-25T20:22:59.786Z,58.63
2022-08-25T20:25:56.086Z,59.23
2022-08-25T20:28:52.899Z,60.19
2022-08-25T20:32:06.568Z,65.14
2022-08-25T20:35:14.592Z,64.97
2022-08-25T20:38:21.771Z,58.04
2022-08-25T20:41:26.685Z,56.47
2022-08-25T20:44:42.104Z,57.87
2022-08-25T20:47:51.462Z,58.58
2022-08-25T20:50:57.274Z,59.85
2022-08-25T20:53:56.652Z,65.39
2022-08-25T20:56:54.567Z,63.68
2022-08-25T20:59:59.262Z,57.94
2022-08-25T21:03:05.332Z,55.79
2022-08-25T21:06:17.159Z,56.48
2022-08-25T21:09:20.559Z,57.84
2022-08-25T21:12:19.216Z,58.42
2022-08-25T21:15:25.483Z,59.19
2022-08-25T21:18:35.850Z,59.70
2022-08-25T21:21:32.172Z,60.39
2022-08-25T21:24:37.765Z,65.62
2022-08-25T21:27:38.897Z,64.35
2022-08-25T21:30:39.085Z,58.08
2022-08-25T21:33:41.373Z,56.01
2022-08-25T21:36:42.409Z,56.62
2022-08-25T21:39:40.852Z,57.53
2022-08-25T21:42:41.801Z,58.38
2022-08-25T21:45:46.492Z,59.25
2022-08-25T21:48:47.426Z,59.88
2022-08-25T21:51:59.293Z,60.46
2022-08-25T21:54:59.844Z,65.91
2022-08-25T21:58:05.801Z,64.02
2022-08-25T22:01:15.882Z,57.80
2022-08-25T22:04:18.641Z,55.64
2022-08-25T22:07:20.820Z,56.35
2022-08-25T22:10:22.801Z,57.25
2022-08-25T22:13:25.571Z,58.17
2022-08-25T22:16:25.136Z,58.98
2022-08-25T22:19:19.376Z,59.75
2022-08-25T22:22:20.828Z,60.00
2022-08-25T22:25:23.772Z,60.35
2022-08-25T22:28:24.145Z,65.86
2022-08-25T22:31:34.874Z,63.32
2022-08-25T22:34:30.616Z,58.26
2022-08-25T22:37:35.163Z,55.89
2022-08-25T22:40:29.883Z,56.45
2022-08-25T22:43:25.721Z,57.57
2022-08-25T22:46:20.894Z,58.43
2022-08-25T22:49:17.446Z,58.67
2022-08-25T22:52:15.296Z,59.39
2022-08-25T22:55:22.469Z,59.90
2022-08-25T22:58:16.764Z,60.57
2022-08-25T23:01:19.132Z,60.97
2022-08-25T23:04:15.572Z,66.55
2022-08-25T23:07:14.803Z,64.89
2022-08-25T23:10:21.424Z,58.15
2022-08-25T23:13:33.746Z,55.65
2022-08-25T23:16:35.658Z,56.08
2022-08-25T23:19:30.739Z,57.11
2022-08-25T23:22:24.421Z,57.85
2022-08-25T23:25:25.147Z,58.55
2022-08-25T23:28:20.561Z,59.10
2022-08-25T23:31:15.428Z,59.71
2022-08-25T23:34:09.232Z,60.39
2022-08-25T23:37:06.912Z,60.87
2022-08-25T23:40:10.892Z,66.36
2022-08-25T23:43:05.444Z,64.78
2022-08-25T23:46:00.589Z,57.83
2022-08-25T23:48:57.732Z,55.23
2022-08-25T23:51:55.100Z,55.03
2022-08-25T23:54:47.473Z,56.66
2022-08-25T23:57:41.844Z,57.52
